FDX3328 KAFW-KMEM
Flight info
| Callsign | FDX3328 |
|---|---|
| Flight time | 1h 0m |
| Altitude | 35000 |
| Route | KUSSO2 FORCK ELD HOBRK4 |
| Aircraft | MD11/H-SDE1E2E3FGHIJ2J3J4J5M1RWXY/LB1D1 |
Departure
| Time | 2026-05-05 22:12 |
|---|---|
| Airport | Perot Field/Fort Worth Alliance Airport (KAFW) |
Arrival
| Time | 2026-05-05 23:12 |
|---|---|
| Airport | Memphis International Airport (KMEM) |
| Time | Latitude | Longitude | Altitude | Speed | Heading |
|---|---|---|---|---|---|
| 2026-05-05 21:57 | 32.99617 | -97.31461 | 711 ft | 0 kts | 170° |
| 2026-05-05 22:00 | 32.99628 | -97.31464 | 711 ft | 2 kts | 170° |
| 2026-05-05 22:01 | 32.99643 | -97.31467 | 711 ft | 2 kts | 170° |
| 2026-05-05 22:01 | 32.99657 | -97.31469 | 711 ft | 2 kts | 181° |
| 2026-05-05 22:01 | 32.99672 | -97.31465 | 711 ft | 2 kts | 209° |
| 2026-05-05 22:01 | 32.99683 | -97.31454 | 711 ft | 2 kts | 232° |
| 2026-05-05 22:02 | 32.99690 | -97.31439 | 711 ft | 1 kts | 256° |
| 2026-05-05 22:02 | 32.99691 | -97.31432 | 711 ft | 0 kts | 261° |
| 2026-05-05 22:04 | 32.99690 | -97.31443 | 711 ft | 2 kts | 261° |
| 2026-05-05 22:04 | 32.99685 | -97.31477 | 711 ft | 5 kts | 261° |
| 2026-05-05 22:04 | 32.99677 | -97.31534 | 711 ft | 7 kts | 261° |
| 2026-05-05 22:05 | 32.99665 | -97.31598 | 711 ft | 7 kts | 241° |
| 2026-05-05 22:05 | 32.99617 | -97.31614 | 711 ft | 8 kts | 169° |
| 2026-05-05 22:05 | 32.99557 | -97.31599 | 711 ft | 9 kts | 167° |
| 2026-05-05 22:05 | 32.99489 | -97.31580 | 711 ft | 10 kts | 168° |
| 2026-05-05 22:06 | 32.99412 | -97.31563 | 710 ft | 12 kts | 169° |
| 2026-05-05 22:06 | 32.99327 | -97.31545 | 709 ft | 11 kts | 175° |
| 2026-05-05 22:06 | 32.99272 | -97.31605 | 708 ft | 12 kts | 259° |
| 2026-05-05 22:06 | 32.99255 | -97.31705 | 709 ft | 11 kts | 253° |
| 2026-05-05 22:07 | 32.99186 | -97.31742 | 708 ft | 12 kts | 173° |
| 2026-05-05 22:07 | 32.99126 | -97.31732 | 707 ft | 14 kts | 171° |
| 2026-05-05 22:07 | 32.99022 | -97.31712 | 705 ft | 16 kts | 171° |
| 2026-05-05 22:07 | 32.98902 | -97.31686 | 703 ft | 18 kts | 169° |
| 2026-05-05 22:08 | 32.98768 | -97.31656 | 700 ft | 20 kts | 170° |
| 2026-05-05 22:08 | 32.98615 | -97.31626 | 697 ft | 23 kts | 171° |
| 2026-05-05 22:08 | 32.98452 | -97.31595 | 694 ft | 24 kts | 171° |
| 2026-05-05 22:08 | 32.98287 | -97.31562 | 690 ft | 19 kts | 169° |
| 2026-05-05 22:09 | 32.98143 | -97.31531 | 687 ft | 22 kts | 170° |
| 2026-05-05 22:09 | 32.97985 | -97.31499 | 683 ft | 24 kts | 171° |
| 2026-05-05 22:09 | 32.97845 | -97.31471 | 681 ft | 19 kts | 170° |
| 2026-05-05 22:09 | 32.97711 | -97.31445 | 678 ft | 12 kts | 171° |
| 2026-05-05 22:10 | 32.97652 | -97.31432 | 678 ft | 5 kts | 169° |
| 2026-05-05 22:10 | 32.97609 | -97.31434 | 677 ft | 6 kts | 212° |
| 2026-05-05 22:10 | 32.97588 | -97.31486 | 677 ft | 7 kts | 258° |
| 2026-05-05 22:10 | 32.97595 | -97.31539 | 677 ft | 6 kts | 324° |
| 2026-05-05 22:11 | 32.97642 | -97.31560 | 678 ft | 10 kts | 345° |
| 2026-05-05 22:11 | 32.97899 | -97.31613 | 682 ft | 73 kts | 351° |
| 2026-05-05 22:11 | 32.98645 | -97.31766 | 699 ft | 141 kts | 350° |
| 2026-05-05 22:11 | 32.99821 | -97.32003 | 732 ft | 193 kts | 348° |
| 2026-05-05 22:12 | 33.01086 | -97.32269 | 1501 ft | 180 kts | 348° |
| 2026-05-05 22:12 | 33.02329 | -97.32489 | 2153 ft | 184 kts | 349° |
| 2026-05-05 22:12 | 33.03633 | -97.32731 | 2555 ft | 202 kts | 341° |
| 2026-05-05 22:12 | 33.04871 | -97.33665 | 2732 ft | 226 kts | 310° |
| 2026-05-05 22:13 | 33.05555 | -97.35417 | 3035 ft | 246 kts | 281° |
| 2026-05-05 22:13 | 33.05374 | -97.37485 | 3621 ft | 263 kts | 249° |
| 2026-05-05 22:13 | 33.04333 | -97.39257 | 4554 ft | 269 kts | 221° |
| 2026-05-05 22:13 | 33.02691 | -97.40278 | 5548 ft | 273 kts | 194° |
| 2026-05-05 22:14 | 33.00819 | -97.40300 | 6568 ft | 277 kts | 168° |
| 2026-05-05 22:14 | 32.99084 | -97.39312 | 7482 ft | 287 kts | 144° |
| 2026-05-05 22:14 | 32.97694 | -97.37551 | 8331 ft | 298 kts | 129° |
| 2026-05-05 22:14 | 32.96672 | -97.35384 | 9131 ft | 308 kts | 117° |
| 2026-05-05 22:15 | 32.95929 | -97.32976 | 9903 ft | 317 kts | 111° |
| 2026-05-05 22:15 | 32.95308 | -97.30410 | 10389 ft | 335 kts | 112° |
| 2026-05-05 22:15 | 32.94418 | -97.27744 | 10490 ft | 361 kts | 122° |
| 2026-05-05 22:15 | 32.93370 | -97.24892 | 10590 ft | 395 kts | 109° |
| 2026-05-05 22:16 | 32.92794 | -97.21590 | 11100 ft | 413 kts | 102° |
| 2026-05-05 22:16 | 32.92355 | -97.18190 | 11769 ft | 424 kts | 102° |
| 2026-05-05 22:16 | 32.91897 | -97.14714 | 12440 ft | 434 kts | 103° |
| 2026-05-05 22:16 | 32.91402 | -97.11131 | 13169 ft | 442 kts | 103° |
| 2026-05-05 22:17 | 32.90889 | -97.07533 | 13932 ft | 448 kts | 103° |
| 2026-05-05 22:17 | 32.90359 | -97.03850 | 14695 ft | 454 kts | 103° |
| 2026-05-05 22:17 | 32.89830 | -97.00157 | 15454 ft | 460 kts | 103° |
| 2026-05-05 22:17 | 32.89284 | -96.96373 | 16216 ft | 465 kts | 103° |
| 2026-05-05 22:18 | 32.88744 | -96.92600 | 16991 ft | 469 kts | 103° |
| 2026-05-05 22:18 | 32.88192 | -96.88753 | 17694 ft | 475 kts | 103° |
| 2026-05-05 22:18 | 32.87635 | -96.84876 | 18278 ft | 482 kts | 103° |
| 2026-05-05 22:18 | 32.87074 | -96.80957 | 18871 ft | 489 kts | 103° |
| 2026-05-05 22:19 | 32.86501 | -96.76923 | 19471 ft | 496 kts | 103° |
| 2026-05-05 22:19 | 32.85923 | -96.72842 | 20032 ft | 503 kts | 103° |
| 2026-05-05 22:19 | 32.85341 | -96.68749 | 20602 ft | 509 kts | 102° |
| 2026-05-05 22:19 | 32.84753 | -96.64596 | 21127 ft | 516 kts | 102° |
| 2026-05-05 22:20 | 32.84160 | -96.60384 | 21624 ft | 523 kts | 102° |
| 2026-05-05 22:20 | 32.83691 | -96.56072 | 22088 ft | 532 kts | 96° |
| 2026-05-05 22:20 | 32.83492 | -96.51668 | 22623 ft | 539 kts | 94° |
| 2026-05-05 22:20 | 32.83333 | -96.47220 | 23189 ft | 543 kts | 95° |
| 2026-05-05 22:21 | 32.82824 | -96.42780 | 23666 ft | 545 kts | 106° |
| 2026-05-05 22:21 | 32.81704 | -96.38509 | 24204 ft | 543 kts | 116° |
| 2026-05-05 22:21 | 32.80236 | -96.34382 | 24756 ft | 545 kts | 119° |
| 2026-05-05 22:21 | 32.78789 | -96.30221 | 25267 ft | 551 kts | 114° |
| 2026-05-05 22:22 | 32.77858 | -96.25775 | 25730 ft | 562 kts | 101° |
| 2026-05-05 22:22 | 32.77640 | -96.21145 | 26310 ft | 566 kts | 88° |
| 2026-05-05 22:22 | 32.78124 | -96.16508 | 26685 ft | 571 kts | 76° |
| 2026-05-05 22:22 | 32.79303 | -96.12012 | 27131 ft | 572 kts | 66° |
| 2026-05-05 22:23 | 32.80581 | -96.07539 | 27530 ft | 578 kts | 74° |
| 2026-05-05 22:23 | 32.81440 | -96.02869 | 27977 ft | 582 kts | 79° |
| 2026-05-05 22:23 | 32.82196 | -95.98148 | 28475 ft | 585 kts | 78° |
| 2026-05-05 22:23 | 32.83012 | -95.93406 | 28914 ft | 588 kts | 76° |
| 2026-05-05 22:24 | 32.83887 | -95.88677 | 29529 ft | 588 kts | 76° |
| 2026-05-05 22:24 | 32.84783 | -95.83962 | 30150 ft | 587 kts | 77° |
| 2026-05-05 22:24 | 32.85418 | -95.79182 | 30666 ft | 588 kts | 83° |
| 2026-05-05 22:24 | 32.85820 | -95.74371 | 31297 ft | 586 kts | 84° |
| 2026-05-05 22:25 | 32.86209 | -95.69574 | 31789 ft | 587 kts | 84° |
| 2026-05-05 22:25 | 32.86619 | -95.64767 | 32258 ft | 587 kts | 83° |
| 2026-05-05 22:25 | 32.87056 | -95.59927 | 32744 ft | 587 kts | 83° |
| 2026-05-05 22:25 | 32.87514 | -95.55085 | 33214 ft | 586 kts | 82° |
| 2026-05-05 22:26 | 32.87973 | -95.50269 | 33785 ft | 585 kts | 82° |
| 2026-05-05 22:26 | 32.88445 | -95.45375 | 34138 ft | 585 kts | 82° |
| 2026-05-05 22:26 | 32.88920 | -95.40468 | 34390 ft | 583 kts | 82° |
| 2026-05-05 22:26 | 32.89389 | -95.35567 | 34683 ft | 583 kts | 82° |
| 2026-05-05 22:27 | 32.89861 | -95.30645 | 34767 ft | 584 kts | 82° |
| 2026-05-05 22:27 | 32.90806 | -95.20998 | 34752 ft | 583 kts | 82° |
| 2026-05-05 22:28 | 32.91738 | -95.11471 | 34753 ft | 583 kts | 82° |
| 2026-05-05 22:28 | 32.92686 | -95.01931 | 34751 ft | 583 kts | 82° |
| 2026-05-05 22:29 | 32.93646 | -94.92314 | 34755 ft | 583 kts | 82° |
| 2026-05-05 22:29 | 32.94600 | -94.82769 | 34765 ft | 583 kts | 82° |
| 2026-05-05 22:30 | 32.95450 | -94.73201 | 34773 ft | 583 kts | 82° |
| 2026-05-05 22:30 | 32.96288 | -94.63655 | 34778 ft | 581 kts | 82° |
| 2026-05-05 22:31 | 32.97147 | -94.54126 | 34777 ft | 582 kts | 82° |
| 2026-05-05 22:31 | 32.98019 | -94.44590 | 34771 ft | 581 kts | 82° |
| 2026-05-05 22:32 | 32.98894 | -94.35068 | 34761 ft | 581 kts | 81° |
| 2026-05-05 22:32 | 32.99822 | -94.25475 | 34751 ft | 580 kts | 78° |
| 2026-05-05 22:33 | 33.01403 | -94.16167 | 34761 ft | 579 kts | 75° |
| 2026-05-05 22:33 | 33.03057 | -94.06819 | 34756 ft | 578 kts | 75° |
| 2026-05-05 22:34 | 33.04665 | -93.97421 | 34766 ft | 577 kts | 75° |
| 2026-05-05 22:34 | 33.06250 | -93.88110 | 34774 ft | 577 kts | 75° |
| 2026-05-05 22:35 | 33.07850 | -93.78768 | 34765 ft | 576 kts | 75° |
| 2026-05-05 22:35 | 33.09457 | -93.69444 | 34754 ft | 576 kts | 75° |
| 2026-05-05 22:36 | 33.11083 | -93.60038 | 34743 ft | 577 kts | 75° |
| 2026-05-05 22:36 | 33.12700 | -93.50719 | 34739 ft | 576 kts | 74° |
| 2026-05-05 22:37 | 33.14325 | -93.41400 | 34737 ft | 576 kts | 75° |
| 2026-05-05 22:37 | 33.15960 | -93.32078 | 34735 ft | 575 kts | 75° |
| 2026-05-05 22:38 | 33.17553 | -93.22763 | 34762 ft | 575 kts | 76° |
| 2026-05-05 22:38 | 33.19070 | -93.13429 | 34767 ft | 575 kts | 76° |
| 2026-05-05 22:39 | 33.20603 | -93.04098 | 34773 ft | 575 kts | 75° |
| 2026-05-05 22:39 | 33.22151 | -92.94772 | 34778 ft | 575 kts | 75° |
| 2026-05-05 22:40 | 33.23706 | -92.85458 | 34787 ft | 573 kts | 75° |
| 2026-05-05 22:40 | 33.25384 | -92.76185 | 34773 ft | 570 kts | 68° |
| 2026-05-05 22:41 | 33.28641 | -92.67747 | 34792 ft | 555 kts | 48° |
| 2026-05-05 22:41 | 33.33297 | -92.60503 | 34760 ft | 547 kts | 44° |
| 2026-05-05 22:42 | 33.37807 | -92.53151 | 34761 ft | 550 kts | 46° |
| 2026-05-05 22:42 | 33.42173 | -92.45618 | 34785 ft | 551 kts | 47° |
| 2026-05-05 22:43 | 33.46499 | -92.38081 | 34784 ft | 551 kts | 47° |
| 2026-05-05 22:43 | 33.50428 | -92.31255 | 34760 ft | 549 kts | 47° |
| 2026-05-05 22:44 | 33.52017 | -92.28492 | 34778 ft | 549 kts | 47° |
| 2026-05-05 22:44 | 33.56349 | -92.20980 | 34773 ft | 550 kts | 47° |
| 2026-05-05 22:45 | 33.60682 | -92.13470 | 34756 ft | 551 kts | 47° |
| 2026-05-05 22:45 | 33.65044 | -92.05914 | 34759 ft | 552 kts | 47° |
| 2026-05-05 22:46 | 33.69409 | -91.98354 | 34769 ft | 551 kts | 47° |
| 2026-05-05 22:46 | 33.73786 | -91.90786 | 34779 ft | 550 kts | 46° |
| 2026-05-05 22:47 | 33.78135 | -91.83230 | 34786 ft | 550 kts | 47° |
| 2026-05-05 22:47 | 33.82424 | -91.75639 | 34785 ft | 551 kts | 47° |
| 2026-05-05 22:48 | 33.86731 | -91.68028 | 34773 ft | 552 kts | 47° |
| 2026-05-05 22:48 | 33.91046 | -91.60420 | 34772 ft | 552 kts | 46° |
| 2026-05-05 22:49 | 33.95570 | -91.53145 | 33785 ft | 542 kts | 38° |
| 2026-05-05 22:49 | 33.98089 | -91.49784 | 32539 ft | 547 kts | 38° |
| 2026-05-05 22:49 | 34.00626 | -91.46403 | 31910 ft | 543 kts | 39° |
| 2026-05-05 22:49 | 34.03125 | -91.43011 | 31569 ft | 541 kts | 39° |
| 2026-05-05 22:50 | 34.05609 | -91.39613 | 31188 ft | 543 kts | 39° |
| 2026-05-05 22:50 | 34.08099 | -91.36199 | 30786 ft | 545 kts | 40° |
| 2026-05-05 22:50 | 34.10608 | -91.32740 | 30355 ft | 548 kts | 40° |
| 2026-05-05 22:50 | 34.13139 | -91.29245 | 29711 ft | 549 kts | 40° |
| 2026-05-05 22:51 | 34.15614 | -91.25834 | 29044 ft | 545 kts | 41° |
| 2026-05-05 22:51 | 34.18072 | -91.22430 | 28951 ft | 534 kts | 40° |
| 2026-05-05 22:51 | 34.20516 | -91.19046 | 28705 ft | 525 kts | 40° |
| 2026-05-05 22:51 | 34.22881 | -91.15749 | 28182 ft | 513 kts | 41° |
| 2026-05-05 22:52 | 34.25149 | -91.12579 | 27530 ft | 503 kts | 41° |
| 2026-05-05 22:52 | 34.27415 | -91.09422 | 26646 ft | 495 kts | 41° |
| 2026-05-05 22:52 | 34.29637 | -91.06327 | 25880 ft | 484 kts | 41° |
| 2026-05-05 22:52 | 34.31816 | -91.03294 | 25353 ft | 476 kts | 41° |
| 2026-05-05 22:53 | 34.33979 | -91.00291 | 24875 ft | 474 kts | 41° |
| 2026-05-05 22:53 | 34.36134 | -90.97301 | 24226 ft | 471 kts | 41° |
| 2026-05-05 22:53 | 34.38271 | -90.94330 | 23546 ft | 468 kts | 42° |
| 2026-05-05 22:53 | 34.40392 | -90.91385 | 22968 ft | 462 kts | 42° |
| 2026-05-05 22:54 | 34.42494 | -90.88455 | 22598 ft | 451 kts | 42° |
| 2026-05-05 22:54 | 34.44502 | -90.85659 | 21748 ft | 448 kts | 42° |
| 2026-05-05 22:54 | 34.46529 | -90.82849 | 20902 ft | 442 kts | 42° |
| 2026-05-05 22:54 | 34.48521 | -90.80084 | 20464 ft | 430 kts | 42° |
| 2026-05-05 22:55 | 34.50462 | -90.77379 | 20037 ft | 424 kts | 42° |
| 2026-05-05 22:55 | 34.52353 | -90.74651 | 19447 ft | 424 kts | 44° |
| 2026-05-05 22:55 | 34.54212 | -90.71904 | 18896 ft | 421 kts | 44° |
| 2026-05-05 22:55 | 34.56061 | -90.69177 | 18374 ft | 419 kts | 43° |
| 2026-05-05 22:56 | 34.57904 | -90.66471 | 17825 ft | 416 kts | 43° |
| 2026-05-05 22:56 | 34.59740 | -90.63780 | 17203 ft | 413 kts | 43° |
| 2026-05-05 22:56 | 34.61564 | -90.61120 | 16394 ft | 409 kts | 44° |
| 2026-05-05 22:56 | 34.63337 | -90.58463 | 15665 ft | 405 kts | 46° |
| 2026-05-05 22:57 | 34.65042 | -90.55776 | 14962 ft | 401 kts | 46° |
| 2026-05-05 22:57 | 34.66729 | -90.53100 | 14372 ft | 397 kts | 46° |
| 2026-05-05 22:57 | 34.68397 | -90.50465 | 13835 ft | 393 kts | 46° |
| 2026-05-05 22:57 | 34.70060 | -90.47865 | 13353 ft | 389 kts | 46° |
| 2026-05-05 22:58 | 34.71712 | -90.45285 | 12948 ft | 386 kts | 46° |
| 2026-05-05 22:58 | 34.73357 | -90.42715 | 12530 ft | 386 kts | 47° |
| 2026-05-05 22:58 | 34.74993 | -90.40149 | 12055 ft | 384 kts | 47° |
| 2026-05-05 22:58 | 34.76617 | -90.37600 | 11631 ft | 380 kts | 47° |
| 2026-05-05 22:59 | 34.78216 | -90.35083 | 11232 ft | 374 kts | 47° |
| 2026-05-05 22:59 | 34.79790 | -90.32614 | 10991 ft | 362 kts | 48° |
| 2026-05-05 22:59 | 34.81302 | -90.30235 | 10950 ft | 350 kts | 48° |
| 2026-05-05 22:59 | 34.82771 | -90.27924 | 10829 ft | 345 kts | 47° |
| 2026-05-05 23:00 | 34.85678 | -90.23352 | 10024 ft | 332 kts | 49° |
| 2026-05-05 23:00 | 34.87075 | -90.21146 | 9974 ft | 327 kts | 49° |
| 2026-05-05 23:00 | 34.88459 | -90.18959 | 9980 ft | 327 kts | 49° |
| 2026-05-05 23:01 | 34.89850 | -90.16766 | 9968 ft | 328 kts | 48° |
| 2026-05-05 23:01 | 34.91246 | -90.14562 | 9961 ft | 329 kts | 48° |
| 2026-05-05 23:01 | 34.92767 | -90.12515 | 9961 ft | 323 kts | 32° |
| 2026-05-05 23:01 | 34.94673 | -90.11201 | 9887 ft | 311 kts | 9° |
| 2026-05-05 23:02 | 34.96743 | -90.10791 | 9632 ft | 295 kts | 351° |
| 2026-05-05 23:02 | 34.98747 | -90.10861 | 9372 ft | 282 kts | 349° |
| 2026-05-05 23:02 | 35.00667 | -90.10936 | 9109 ft | 270 kts | 350° |
| 2026-05-05 23:02 | 35.02516 | -90.10969 | 8870 ft | 261 kts | 351° |
| 2026-05-05 23:03 | 35.04310 | -90.10964 | 8617 ft | 255 kts | 351° |
| 2026-05-05 23:03 | 35.06071 | -90.10943 | 8356 ft | 251 kts | 352° |
| 2026-05-05 23:03 | 35.07817 | -90.10917 | 8057 ft | 250 kts | 352° |
| 2026-05-05 23:03 | 35.09558 | -90.10892 | 7759 ft | 250 kts | 352° |
| 2026-05-05 23:04 | 35.11311 | -90.10883 | 7455 ft | 249 kts | 351° |
| 2026-05-05 23:04 | 35.13040 | -90.10915 | 7149 ft | 248 kts | 351° |
| 2026-05-05 23:04 | 35.14763 | -90.10951 | 6841 ft | 247 kts | 352° |
| 2026-05-05 23:04 | 35.16482 | -90.10980 | 6529 ft | 247 kts | 352° |
| 2026-05-05 23:05 | 35.18198 | -90.11006 | 6224 ft | 247 kts | 352° |
| 2026-05-05 23:05 | 35.19915 | -90.11029 | 5897 ft | 247 kts | 352° |
| 2026-05-05 23:05 | 35.21632 | -90.11053 | 5490 ft | 246 kts | 353° |
| 2026-05-05 23:05 | 35.23341 | -90.11075 | 5092 ft | 246 kts | 353° |
| 2026-05-05 23:06 | 35.25044 | -90.10749 | 4704 ft | 255 kts | 22° |
| 2026-05-05 23:06 | 35.26459 | -90.09452 | 4389 ft | 257 kts | 56° |
| 2026-05-05 23:06 | 35.27206 | -90.07498 | 4154 ft | 253 kts | 81° |
| 2026-05-05 23:06 | 35.27524 | -90.05393 | 3895 ft | 252 kts | 87° |
| 2026-05-05 23:07 | 35.27753 | -90.03270 | 3616 ft | 251 kts | 90° |
| 2026-05-05 23:07 | 35.27577 | -90.01231 | 3346 ft | 234 kts | 123° |
| 2026-05-05 23:07 | 35.26696 | -89.99684 | 3101 ft | 214 kts | 152° |
| 2026-05-05 23:07 | 35.25412 | -89.99076 | 3026 ft | 194 kts | 184° |
| 2026-05-05 23:08 | 35.24052 | -89.99076 | 3001 ft | 197 kts | 186° |
| 2026-05-05 23:08 | 35.22686 | -89.99093 | 2985 ft | 196 kts | 185° |
| 2026-05-05 23:08 | 35.21322 | -89.99084 | 2982 ft | 196 kts | 184° |
| 2026-05-05 23:08 | 35.19946 | -89.99063 | 2978 ft | 196 kts | 184° |
| 2026-05-05 23:09 | 35.18593 | -89.99036 | 2855 ft | 197 kts | 184° |
| 2026-05-05 23:09 | 35.17228 | -89.99011 | 2607 ft | 196 kts | 183° |
| 2026-05-05 23:09 | 35.15865 | -89.98983 | 2369 ft | 195 kts | 182° |
| 2026-05-05 23:09 | 35.14526 | -89.98955 | 2109 ft | 189 kts | 181° |
| 2026-05-05 23:10 | 35.13245 | -89.98927 | 1859 ft | 174 kts | 181° |
| 2026-05-05 23:10 | 35.12107 | -89.98899 | 1662 ft | 156 kts | 181° |
| 2026-05-05 23:10 | 35.11065 | -89.98870 | 1561 ft | 145 kts | 181° |
| 2026-05-05 23:10 | 35.10069 | -89.98870 | 1316 ft | 148 kts | 183° |
| 2026-05-05 23:11 | 35.08994 | -89.98894 | 1206 ft | 152 kts | 180° |
| 2026-05-05 23:11 | 35.07932 | -89.98824 | 1027 ft | 154 kts | 179° |
| 2026-05-05 23:11 | 35.06861 | -89.98797 | 763 ft | 153 kts | 180° |
| 2026-05-05 23:11 | 35.05776 | -89.98772 | 482 ft | 156 kts | 180° |
| 2026-05-05 23:12 | 35.04671 | -89.98741 | 301 ft | 157 kts | 179° |
| 2026-05-05 23:12 | 35.03673 | -89.98719 | 301 ft | 127 kts | 178° |
| 2026-05-05 23:12 | 35.03016 | -89.98700 | 317 ft | 43 kts | 179° |
| 2026-05-05 23:12 | 35.02798 | -89.98679 | 323 ft | 20 kts | 164° |
| 2026-05-05 23:13 | 35.02720 | -89.98627 | 325 ft | 11 kts | 134° |
| 2026-05-05 23:13 | 35.02687 | -89.98572 | 327 ft | 3 kts | 123° |
| 2026-05-05 23:13 | 35.02674 | -89.98548 | 328 ft | 2 kts | 123° |
| 2026-05-05 23:13 | 35.02667 | -89.98534 | 328 ft | 3 kts | 122° |
| 2026-05-05 23:14 | 35.02658 | -89.98489 | 329 ft | 8 kts | 66° |
| 2026-05-05 23:14 | 35.02753 | -89.98461 | 327 ft | 20 kts | 2° |
| 2026-05-05 23:14 | 35.02914 | -89.98465 | 323 ft | 24 kts | 357° |
| 2026-05-05 23:14 | 35.03096 | -89.98471 | 318 ft | 27 kts | 360° |
| 2026-05-05 23:15 | 35.03288 | -89.98474 | 312 ft | 24 kts | 359° |
| 2026-05-05 23:15 | 35.03465 | -89.98480 | 308 ft | 25 kts | 358° |
| 2026-05-05 23:15 | 35.03652 | -89.98487 | 303 ft | 27 kts | 358° |
| 2026-05-05 23:15 | 35.03841 | -89.98492 | 300 ft | 27 kts | 359° |
| 2026-05-05 23:16 | 35.04018 | -89.98496 | 298 ft | 20 kts | 359° |
| 2026-05-05 23:16 | 35.04166 | -89.98499 | 296 ft | 21 kts | 359° |
| 2026-05-05 23:16 | 35.04317 | -89.98502 | 294 ft | 21 kts | 359° |
| 2026-05-05 23:16 | 35.04472 | -89.98505 | 292 ft | 22 kts | 359° |
| 2026-05-05 23:17 | 35.04629 | -89.98508 | 290 ft | 22 kts | 359° |
| 2026-05-05 23:17 | 35.04791 | -89.98511 | 288 ft | 23 kts | 359° |
| 2026-05-05 23:17 | 35.04956 | -89.98515 | 285 ft | 24 kts | 359° |
| 2026-05-05 23:17 | 35.05131 | -89.98515 | 280 ft | 25 kts | 2° |
| 2026-05-05 23:18 | 35.05309 | -89.98511 | 276 ft | 22 kts | 0° |
| 2026-05-05 23:18 | 35.05465 | -89.98510 | 271 ft | 23 kts | 0° |
| 2026-05-05 23:18 | 35.05631 | -89.98509 | 267 ft | 24 kts | 0° |
| 2026-05-05 23:18 | 35.05806 | -89.98509 | 263 ft | 22 kts | 0° |
| 2026-05-05 23:19 | 35.05954 | -89.98510 | 261 ft | 21 kts | 357° |
| 2026-05-05 23:19 | 35.06073 | -89.98525 | 259 ft | 13 kts | 352° |
| 2026-05-05 23:19 | 35.06148 | -89.98531 | 259 ft | 4 kts | 3° |
| 2026-05-05 23:19 | 35.06163 | -89.98512 | 258 ft | 3 kts | 67° |
| 2026-05-05 23:20 | 35.06166 | -89.98492 | 258 ft | 2 kts | 82° |
| 2026-05-05 23:20 | 35.06168 | -89.98456 | 259 ft | 4 kts | 91° |
| 2026-05-05 23:20 | 35.06168 | -89.98450 | 259 ft | 0 kts | 91° |